Time,TemperatureF,DewpointF,PressureIn,WindDirection,WindDirectionDegrees,WindSpeedMPH,WindSpeedGustMPH,Humidity,HourlyPrecipIn,Conditions,Clouds,dailyrainin,SoftwareType,DateUTC
2015-03-27 00:02:00,62.7,56.8,29.75,NNW,330,3.0,5.0,81,0.00,,BKN110,0.00,VWS V14.01,2015-03-27 04:02:00,
2015-03-27 00:07:00,62.2,56.3,29.75,North,355,1.0,4.0,81,0.00,,BKN110,0.00,VWS V14.01,2015-03-27 04:07:00,
2015-03-27 00:12:00,61.6,56.1,29.75,North,350,1.0,7.0,82,0.03,,BKN110,0.03,VWS V14.01,2015-03-27 04:12:00,
2015-03-27 00:17:00,60.7,55.2,29.75,North,355,2.0,6.0,82,0.04,,BKN110,0.04,VWS V14.01,2015-03-27 04:17:00,
2015-03-27 00:22:00,59.9,54.7,29.75,North,355,4.0,4.0,83,0.06,,BKN110,0.06,VWS V14.01,2015-03-27 04:22:00,
2015-03-27 00:27:00,59.0,54.2,29.75,NNW,333,1.0,5.0,84,0.07,,BKN110,0.07,VWS V14.01,2015-03-27 04:27:00,
2015-03-27 00:32:00,58.5,54.0,29.75,NNW,329,2.0,3.0,85,0.09,,BKN110,0.09,VWS V14.01,2015-03-27 04:32:00,
2015-03-27 00:37:00,57.9,53.4,29.75,NNE,19,2.0,2.0,85,0.11,,BKN110,0.11,VWS V14.01,2015-03-27 04:37:00,
2015-03-27 00:42:00,57.4,53.2,29.75,NW,308,2.0,6.0,86,0.14,,OVC100,0.14,VWS V14.01,2015-03-27 04:42:00,
2015-03-27 00:47:00,56.8,53.0,29.76,North,355,3.0,3.0,87,0.15,,OVC100,0.15,VWS V14.01,2015-03-27 04:47:00,
2015-03-27 00:52:00,56.4,52.9,29.76,NW,321,1.0,3.0,88,0.16,,OVC044,0.16,VWS V14.01,2015-03-27 04:52:00,
2015-03-27 00:57:00,55.9,52.4,29.76,WSW,240,0.0,3.0,88,0.18,,OVC044,0.18,VWS V14.01,2015-03-27 04:57:00,
2015-03-27 01:02:00,55.5,52.0,29.75,North,360,2.0,4.0,88,0.19,,OVC044,0.19,VWS V14.01,2015-03-27 05:02:00,
2015-03-27 01:07:00,55.1,51.9,29.75,WNW,300,0.0,2.0,89,0.20,,OVC044,0.20,VWS V14.01,2015-03-27 05:07:00,
2015-03-27 01:12:00,54.8,51.6,29.75,WNW,284,1.0,4.0,89,0.19,,OVC044,0.20,VWS V14.01,2015-03-27 05:12:00,
2015-03-27 01:17:00,54.5,51.3,29.75,WNW,284,1.0,3.0,89,0.17,,OVC044,0.20,VWS V14.01,2015-03-27 05:17:00,
2015-03-27 01:22:00,54.2,51.3,29.75,NNW,331,5.0,5.0,90,0.16,,OVC044,0.20,VWS V14.01,2015-03-27 05:22:00,
2015-03-27 01:27:00,53.9,51.0,29.75,West,280,2.0,4.0,90,0.14,,OVC044,0.20,VWS V14.01,2015-03-27 05:27:00,
2015-03-27 01:32:00,53.6,50.7,29.74,NNE,28,2.0,4.0,90,0.12,,OVC044,0.20,VWS V14.01,2015-03-27 05:32:00,
2015-03-27 01:37:00,53.4,50.8,29.74,SSW,196,1.0,3.0,91,0.11,,OVC044,0.20,VWS V14.01,2015-03-27 05:37:00,
2015-03-27 01:42:00,53.2,50.7,29.74,North,360,0.0,4.0,91,0.09,,BKN048,0.20,VWS V14.01,2015-03-27 05:42:00,
2015-03-27 01:47:00,53.0,50.7,29.74,NNW,346,0.0,4.0,92,0.06,,BKN048,0.20,VWS V14.01,2015-03-27 05:47:00,
2015-03-27 01:52:00,52.8,50.5,29.74,North,355,1.0,2.0,92,0.05,,BKN055,0.20,VWS V14.01,2015-03-27 05:52:00,
2015-03-27 01:57:00,52.7,50.5,29.74,North,11,2.0,3.0,92,0.04,,BKN055,0.20,VWS V14.01,2015-03-27 05:57:00,
2015-03-27 02:02:00,52.6,50.3,29.73,SW,223,0.0,2.0,92,0.02,,BKN055,0.20,VWS V14.01,2015-03-27 06:02:00,
2015-03-27 02:07:00,52.5,50.2,29.73,WNW,298,2.0,4.0,92,0.01,,BKN055,0.20,VWS V14.01,2015-03-27 06:07:00,
2015-03-27 02:12:00,52.4,50.2,29.73,WNW,290,1.0,4.0,92,0.00,,BKN055,0.20,VWS V14.01,2015-03-27 06:12:00,
2015-03-27 02:17:00,52.2,50.0,29.73,NW,311,2.0,4.0,92,0.00,,BKN055,0.20,VWS V14.01,2015-03-27 06:17:00,
2015-03-27 02:22:00,52.0,49.8,29.73,NNW,329,1.0,4.0,92,0.00,,BKN055,0.20,VWS V14.01,2015-03-27 06:22:00,
2015-03-27 02:27:00,51.8,49.5,29.73,North,355,0.0,3.0,92,0.00,,BKN055,0.20,VWS V14.01,2015-03-27 06:27:00,
2015-03-27 02:32:00,51.7,49.5,29.72,North,355,1.0,2.0,92,0.00,,BKN055,0.20,VWS V14.01,2015-03-27 06:32:00,
2015-03-27 02:37:00,51.6,49.7,29.72,NW,309,1.0,2.0,93,0.00,,BKN055,0.20,VWS V14.01,2015-03-27 06:37:00,
2015-03-27 02:42:00,51.5,49.5,29.72,NNW,346,1.0,3.0,93,0.00,,BKN055,0.20,VWS V14.01,2015-03-27 06:42:00,
2015-03-27 02:47:00,51.4,49.5,29.72,West,281,0.0,2.0,93,0.00,,BKN055,0.20,VWS V14.01,2015-03-27 06:47:00,
2015-03-27 02:52:00,51.2,49.2,29.72,NNW,340,0.0,5.0,93,0.00,,BKN055,0.20,VWS V14.01,2015-03-27 06:52:00,
2015-03-27 02:57:00,51.1,49.2,29.72,WNW,301,1.0,4.0,93,0.00,,BKN055,0.20,VWS V14.01,2015-03-27 06:57:00,
2015-03-27 03:02:00,51.0,49.0,29.72,WNW,302,1.0,3.0,93,0.00,,BKN055,0.20,VWS V14.01,2015-03-27 07:02:00,
2015-03-27 03:07:00,50.8,48.8,29.72,WNW,297,0.0,4.0,93,0.00,,BKN055,0.20,VWS V14.01,2015-03-27 07:07:00,
2015-03-27 03:12:00,50.6,48.7,29.72,NNW,328,1.0,4.0,93,0.00,,BKN055,0.20,VWS V14.01,2015-03-27 07:12:00,
2015-03-27 03:16:00,50.5,48.6,29.72,North,355,6.0,6.0,93,0.00,,BKN055,0.20,VWS V14.01,2015-03-27 07:16:00,
2015-03-27 03:21:00,50.2,48.3,29.72,NNW,327,2.0,4.0,93,0.00,,BKN055,0.20,VWS V14.01,2015-03-27 07:21:00,
2015-03-27 03:26:00,50.1,48.2,29.72,NE,46,1.0,3.0,93,0.00,,BKN055,0.20,VWS V14.01,2015-03-27 07:26:00,
2015-03-27 03:31:00,50.0,48.1,29.70,NW,322,1.0,2.0,93,0.00,,BKN055,0.20,VWS V14.01,2015-03-27 07:31:00,
2015-03-27 03:36:00,49.9,48.0,29.70,WSW,248,3.0,3.0,93,0.00,,BKN055,0.20,VWS V14.01,2015-03-27 07:36:00,
2015-03-27 03:41:00,49.7,47.8,29.70,North,5,1.0,3.0,93,0.00,,-RA,0.20,VWS V14.01,2015-03-27 07:41:00,
2015-03-27 03:46:00,49.5,47.6,29.70,WNW,290,1.0,5.0,93,0.00,,-RA,0.20,VWS V14.01,2015-03-27 07:46:00,
2015-03-27 03:51:00,49.4,47.5,29.70,NNW,327,2.0,4.0,93,0.00,,-RA,0.20,VWS V14.01,2015-03-27 07:51:00,
2015-03-27 03:56:00,49.2,47.3,29.70,West,267,4.0,4.0,93,0.00,,-RA,0.20,VWS V14.01,2015-03-27 07:56:00,
2015-03-27 04:01:00,49.1,47.2,29.70,NNW,341,1.0,5.0,93,0.00,,-RA,0.20,VWS V14.01,2015-03-27 08:01:00,
2015-03-27 04:06:00,48.9,47.0,29.71,WNW,292,2.0,7.0,93,0.00,,-RA,0.20,VWS V14.01,2015-03-27 08:06:00,
2015-03-27 04:11:00,48.9,47.0,29.71,NW,323,1.0,3.0,93,0.00,,-RA,0.20,VWS V14.01,2015-03-27 08:11:00,
2015-03-27 04:16:00,48.8,46.9,29.71,NW,313,2.0,3.0,93,0.00,,-RA,0.20,VWS V14.01,2015-03-27 08:16:00,
2015-03-27 04:21:00,48.7,46.8,29.70,NW,305,2.0,3.0,93,0.00,,-RA,0.20,VWS V14.01,2015-03-27 08:21:00,
2015-03-27 04:26:00,48.6,46.7,29.70,West,269,2.0,3.0,93,0.00,,-RA,0.20,VWS V14.01,2015-03-27 08:26:00,
2015-03-27 04:31:00,48.5,46.9,29.70,West,269,1.0,2.0,94,0.00,,-RA,0.20,VWS V14.01,2015-03-27 08:31:00,
2015-03-27 04:36:00,48.5,46.9,29.71,NW,304,2.0,7.0,94,0.01,,-RA,0.21,VWS V14.01,2015-03-27 08:36:00,
2015-03-27 04:41:00,48.4,46.8,29.71,East,92,0.0,2.0,94,0.01,,OVC009,0.21,VWS V14.01,2015-03-27 08:41:00,
2015-03-27 04:46:00,48.3,46.7,29.71,West,274,3.0,4.0,94,0.01,,OVC009,0.21,VWS V14.01,2015-03-27 08:46:00,
2015-03-27 04:51:00,48.2,46.3,29.71,NNE,27,1.0,3.0,93,0.01,,OVC009,0.21,VWS V14.01,2015-03-27 08:51:00,
2015-03-27 04:56:00,48.1,46.5,29.71,NW,318,0.0,3.0,94,0.01,,OVC009,0.21,VWS V14.01,2015-03-27 08:56:00,
2015-03-27 05:01:00,48.0,46.4,29.71,NW,316,2.0,5.0,94,0.01,,OVC009,0.21,VWS V14.01,2015-03-27 09:01:00,
2015-03-27 05:06:00,47.9,46.3,29.72,West,271,6.0,6.0,94,0.01,,OVC009,0.21,VWS V14.01,2015-03-27 09:06:00,
2015-03-27 05:11:00,47.8,46.2,29.72,NNW,332,3.0,4.0,94,0.01,,OVC009,0.21,VWS V14.01,2015-03-27 09:11:00,
2015-03-27 05:16:00,47.7,46.1,29.72,NNE,15,2.0,4.0,94,0.01,,OVC009,0.21,VWS V14.01,2015-03-27 09:16:00,
2015-03-27 05:21:00,47.6,46.0,29.72,West,263,0.0,9.0,94,0.02,,OVC009,0.22,VWS V14.01,2015-03-27 09:21:00,
2015-03-27 05:26:00,47.4,45.5,29.72,NNW,348,2.0,5.0,93,0.02,,OVC009,0.22,VWS V14.01,2015-03-27 09:26:00,
2015-03-27 05:31:00,47.2,45.6,29.72,NW,319,1.0,9.0,94,0.02,,OVC009,0.22,VWS V14.01,2015-03-27 09:31:00,
2015-03-27 05:36:00,47.1,45.5,29.71,South,178,0.0,3.0,94,0.02,,OVC009,0.22,VWS V14.01,2015-03-27 09:36:00,
2015-03-27 05:41:00,47.0,45.4,29.71,NW,306,1.0,3.0,94,0.01,,OVC010,0.22,VWS V14.01,2015-03-27 09:41:00,
2015-03-27 05:46:00,46.9,45.3,29.71,South,181,2.0,9.0,94,0.01,,OVC010,0.22,VWS V14.01,2015-03-27 09:46:00,
2015-03-27 05:51:00,46.8,45.2,29.72,WNW,283,3.0,4.0,94,0.01,,OVC010,0.22,VWS V14.01,2015-03-27 09:51:00,
2015-03-27 05:56:00,46.6,45.0,29.72,NNE,19,2.0,3.0,94,0.01,,OVC010,0.22,VWS V14.01,2015-03-27 09:56:00,
2015-03-27 06:01:00,46.6,45.0,29.72,WNW,293,2.0,3.0,94,0.01,,OVC010,0.22,VWS V14.01,2015-03-27 10:01:00,
2015-03-27 06:06:00,46.5,44.9,29.71,NW,309,3.0,7.0,94,0.01,,OVC010,0.22,VWS V14.01,2015-03-27 10:06:00,
2015-03-27 06:11:00,46.4,44.8,29.71,NNW,333,1.0,7.0,94,0.01,,OVC010,0.22,VWS V14.01,2015-03-27 10:11:00,
2015-03-27 06:16:00,46.2,44.6,29.71,NNE,32,2.0,7.0,94,0.01,,OVC010,0.22,VWS V14.01,2015-03-27 10:16:00,
2015-03-27 06:21:00,46.0,44.1,29.71,NW,319,1.0,9.0,93,0.01,,OVC010,0.22,VWS V14.01,2015-03-27 10:21:00,
2015-03-27 06:22:00,46.0,44.1,29.71,NNE,25,2.0,9.0,93,0.01,,OVC010,0.22,VWS V14.01,2015-03-27 10:22:00,
2015-03-27 06:27:00,45.9,44.3,29.71,NW,304,3.0,3.0,94,0.00,,OVC010,0.22,VWS V14.01,2015-03-27 10:27:00,
2015-03-27 06:32:00,45.8,43.9,29.71,NW,321,1.0,7.0,93,0.00,,OVC010,0.22,VWS V14.01,2015-03-27 10:32:00,
2015-03-27 06:37:00,45.6,43.7,29.71,WNW,294,9.0,13.0,93,0.00,,OVC010,0.22,VWS V14.01,2015-03-27 10:37:00,
2015-03-27 06:41:00,45.4,43.5,29.71,WSW,249,5.0,14.0,93,0.00,,OVC008,0.22,VWS V14.01,2015-03-27 10:41:00,
2015-03-27 06:46:00,45.3,43.4,29.72,NW,309,7.0,8.0,93,0.00,,OVC008,0.22,VWS V14.01,2015-03-27 10:46:00,
2015-03-27 06:51:00,45.1,43.2,29.72,North,9,1.0,9.0,93,0.00,,OVC008,0.22,VWS V14.01,2015-03-27 10:51:00,
2015-03-27 06:56:00,45.0,43.1,29.72,SSW,209,4.0,9.0,93,0.00,,OVC008,0.22,VWS V14.01,2015-03-27 10:56:00,
2015-03-27 07:01:00,44.9,43.0,29.73,NNE,17,2.0,12.0,93,0.00,,OVC008,0.22,VWS V14.01,2015-03-27 11:01:00,
2015-03-27 07:06:00,44.8,42.9,29.73,North,360,2.0,5.0,93,0.00,,OVC008,0.22,VWS V14.01,2015-03-27 11:06:00,
2015-03-27 07:11:00,44.6,42.7,29.73,NE,46,3.0,9.0,93,0.00,,OVC008,0.22,VWS V14.01,2015-03-27 11:11:00,
2015-03-27 07:16:00,44.5,42.6,29.73,West,263,3.0,5.0,93,0.00,,OVC008,0.22,VWS V14.01,2015-03-27 11:16:00,
2015-03-27 07:21:00,44.3,42.4,29.74,WNW,294,1.0,6.0,93,0.00,,OVC008,0.22,VWS V14.01,2015-03-27 11:21:00,
2015-03-27 07:26:00,44.3,42.4,29.74,North,360,3.0,4.0,93,0.00,,OVC008,0.22,VWS V14.01,2015-03-27 11:26:00,
2015-03-27 07:31:00,44.2,42.3,29.74,NNE,22,0.0,4.0,93,0.00,,OVC008,0.22,VWS V14.01,2015-03-27 11:31:00,
2015-03-27 07:36:00,44.1,42.2,29.74,North,5,3.0,4.0,93,0.00,,OVC008,0.22,VWS V14.01,2015-03-27 11:36:00,
2015-03-27 07:41:00,43.9,42.0,29.74,ENE,70,0.0,9.0,93,0.00,,OVC011,0.22,VWS V14.01,2015-03-27 11:41:00,
2015-03-27 07:46:00,43.8,41.9,29.74,NNW,340,1.0,5.0,93,0.00,,OVC011,0.22,VWS V14.01,2015-03-27 11:46:00,
2015-03-27 07:51:00,43.7,41.8,29.74,NE,42,1.0,7.0,93,0.00,,OVC011,0.22,VWS V14.01,2015-03-27 11:51:00,
2015-03-27 07:56:00,43.6,41.7,29.74,SW,219,4.0,5.0,93,0.00,,OVC011,0.22,VWS V14.01,2015-03-27 11:56:00,
2015-03-27 08:01:00,43.5,41.3,29.74,WNW,282,2.0,6.0,92,0.00,,OVC011,0.22,VWS V14.01,2015-03-27 12:01:00,
2015-03-27 08:06:00,43.5,41.6,29.75,West,279,0.0,3.0,93,0.00,,OVC011,0.22,VWS V14.01,2015-03-27 12:06:00,
2015-03-27 08:11:00,43.5,41.6,29.75,NNW,342,2.0,7.0,93,0.00,,OVC011,0.22,VWS V14.01,2015-03-27 12:11:00,
2015-03-27 08:16:00,43.5,41.6,29.75,NNW,332,2.0,3.0,93,0.00,,OVC011,0.22,VWS V14.01,2015-03-27 12:16:00,
2015-03-27 08:21:00,43.5,41.3,29.76,NW,321,1.0,5.0,92,0.00,,OVC011,0.22,VWS V14.01,2015-03-27 12:21:00,
2015-03-27 08:26:00,43.4,41.2,29.76,WSW,243,3.0,7.0,92,0.00,,OVC011,0.22,VWS V14.01,2015-03-27 12:26:00,
2015-03-27 08:31:00,43.3,41.1,29.76,ESE,123,2.0,11.0,92,0.00,,OVC011,0.22,VWS V14.01,2015-03-27 12:31:00,
2015-03-27 08:36:00,43.3,40.8,29.76,NE,56,2.0,4.0,91,0.00,,OVC011,0.22,VWS V14.01,2015-03-27 12:36:00,
2015-03-27 08:41:00,43.3,40.8,29.76,SSW,211,4.0,5.0,91,0.00,,OVC011,0.22,VWS V14.01,2015-03-27 12:41:00,
2015-03-27 08:46:00,43.2,40.8,29.76,North,351,3.0,3.0,91,0.00,,OVC011,0.22,VWS V14.01,2015-03-27 12:46:00,
2015-03-27 08:51:00,43.3,40.8,29.77,NNE,19,2.0,5.0,91,0.00,,OVC011,0.22,VWS V14.01,2015-03-27 12:51:00,
2015-03-27 08:56:00,43.3,40.8,29.77,NW,322,2.0,4.0,91,0.00,,OVC011,0.22,VWS V14.01,2015-03-27 12:56:00,
2015-03-27 09:01:00,43.4,41.0,29.77,North,355,6.0,6.0,91,0.00,,OVC011,0.22,VWS V14.01,2015-03-27 13:01:00,
2015-03-27 09:06:00,43.4,41.0,29.78,NNE,26,5.0,7.0,91,0.00,,OVC011,0.22,VWS V14.01,2015-03-27 13:06:00,
2015-03-27 09:11:00,43.5,41.0,29.78,SW,232,6.0,6.0,91,0.00,,OVC011,0.22,VWS V14.01,2015-03-27 13:11:00,
2015-03-27 09:16:00,43.6,40.9,29.78,NNE,19,3.0,6.0,90,0.00,,OVC011,0.22,VWS V14.01,2015-03-27 13:16:00,
2015-03-27 09:21:00,43.6,40.9,29.78,NE,47,1.0,5.0,90,0.00,,OVC011,0.22,VWS V14.01,2015-03-27 13:21:00,
2015-03-27 09:26:00,43.6,40.9,29.78,North,5,1.0,5.0,90,0.00,,OVC011,0.22,VWS V14.01,2015-03-27 13:26:00,
2015-03-27 09:31:00,43.7,41.0,29.78,South,185,3.0,4.0,90,0.00,,OVC011,0.22,VWS V14.01,2015-03-27 13:31:00,
2015-03-27 09:36:00,43.8,40.8,29.78,NNW,344,7.0,14.0,89,0.00,,OVC011,0.22,VWS V14.01,2015-03-27 13:36:00,
2015-03-27 09:41:00,43.8,40.8,29.78,ESE,115,2.0,6.0,89,0.00,,OVC014,0.22,VWS V14.01,2015-03-27 13:41:00,
2015-03-27 09:46:00,43.8,40.8,29.78,SSW,198,3.0,6.0,89,0.00,,OVC014,0.22,VWS V14.01,2015-03-27 13:46:00,
2015-03-27 09:51:00,43.9,40.6,29.79,North,349,2.0,13.0,88,0.00,,OVC014,0.22,VWS V14.01,2015-03-27 13:51:00,
2015-03-27 09:56:00,43.9,40.6,29.79,WNW,283,5.0,11.0,88,0.00,,OVC014,0.22,VWS V14.01,2015-03-27 13:56:00,
2015-03-27 10:01:00,44.0,40.7,29.79,NNE,14,4.0,9.0,88,0.00,,OVC014,0.22,VWS V14.01,2015-03-27 14:01:00,
2015-03-27 10:06:00,44.1,40.8,29.79,NW,304,2.0,5.0,88,0.00,,OVC014,0.22,VWS V14.01,2015-03-27 14:06:00,
2015-03-27 10:11:00,44.2,40.6,29.79,NW,319,2.0,6.0,87,0.00,,OVC014,0.22,VWS V14.01,2015-03-27 14:11:00,
2015-03-27 10:16:00,44.3,40.7,29.79,ESE,119,3.0,6.0,87,0.00,,OVC014,0.22,VWS V14.01,2015-03-27 14:16:00,
2015-03-27 10:21:00,44.5,40.6,29.79,NW,320,2.0,12.0,86,0.00,,OVC014,0.22,VWS V14.01,2015-03-27 14:21:00,
2015-03-27 10:26:00,44.5,40.6,29.79,North,5,5.0,7.0,86,0.00,,OVC014,0.22,VWS V14.01,2015-03-27 14:26:00,
2015-03-27 10:31:00,44.6,40.4,29.79,SSW,192,3.0,7.0,85,0.00,,OVC014,0.22,VWS V14.01,2015-03-27 14:31:00,
2015-03-27 10:36:00,44.6,40.4,29.80,NNW,336,4.0,5.0,85,0.00,,OVC014,0.22,VWS V14.01,2015-03-27 14:36:00,
2015-03-27 10:41:00,44.7,40.5,29.80,NNW,330,1.0,6.0,85,0.00,,OVC014,0.22,VWS V14.01,2015-03-27 14:41:00,
2015-03-27 10:46:00,44.8,40.6,29.80,NNE,25,1.0,9.0,85,0.00,,OVC014,0.22,VWS V14.01,2015-03-27 14:46:00,
2015-03-27 10:51:00,45.1,40.6,29.80,WNW,298,2.0,11.0,84,0.00,,OVC014,0.22,VWS V14.01,2015-03-27 14:51:00,
2015-03-27 10:56:00,45.3,41.1,29.80,NNW,335,1.0,2.0,85,0.00,,OVC014,0.22,VWS V14.01,2015-03-27 14:56:00,
2015-03-27 11:01:00,45.6,40.7,29.80,SW,223,1.0,5.0,83,0.00,,OVC014,0.22,VWS V14.01,2015-03-27 15:01:00,
2015-03-27 11:06:00,45.8,40.6,29.81,West,277,7.0,9.0,82,0.00,,OVC014,0.22,VWS V14.01,2015-03-27 15:06:00,
2015-03-27 11:11:00,45.9,40.7,29.81,ENE,69,2.0,9.0,82,0.00,,OVC014,0.22,VWS V14.01,2015-03-27 15:11:00,
2015-03-27 11:16:00,46.1,40.6,29.81,NNE,26,3.0,6.0,81,0.00,,OVC014,0.22,VWS V14.01,2015-03-27 15:16:00,
2015-03-27 11:21:00,46.1,40.3,29.83,West,265,4.0,15.0,80,0.00,,OVC014,0.22,VWS V14.01,2015-03-27 15:21:00,
2015-03-27 11:26:00,46.2,40.4,29.83,NE,37,2.0,9.0,80,0.00,,OVC014,0.22,VWS V14.01,2015-03-27 15:26:00,
2015-03-27 11:31:00,46.5,40.3,29.83,WNW,292,3.0,6.0,79,0.00,,OVC014,0.22,VWS V14.01,2015-03-27 15:31:00,
2015-03-27 11:36:00,47.4,40.6,29.83,NE,34,4.0,6.0,77,0.00,,OVC014,0.22,VWS V14.01,2015-03-27 15:36:00,
2015-03-27 11:41:00,48.2,40.7,29.83,North,355,5.0,7.0,75,0.00,,OVC019,0.22,VWS V14.01,2015-03-27 15:41:00,
2015-03-27 11:46:00,48.5,41.3,29.83,West,269,3.0,10.0,76,0.00,,OVC019,0.22,VWS V14.01,2015-03-27 15:46:00,
2015-03-27 11:51:00,48.6,40.7,29.83,NNW,329,2.0,8.0,74,0.00,,OVC019,0.22,VWS V14.01,2015-03-27 15:51:00,
2015-03-27 11:56:00,48.6,41.0,29.83,West,267,1.0,10.0,75,0.00,,OVC019,0.22,VWS V14.01,2015-03-27 15:56:00,
2015-03-27 12:01:00,48.5,41.6,29.83,SW,217,2.0,7.0,77,0.00,,OVC019,0.22,VWS V14.01,2015-03-27 16:01:00,
2015-03-27 12:06:00,48.3,40.8,29.84,NNW,338,3.0,4.0,75,0.00,,OVC019,0.22,VWS V14.01,2015-03-27 16:06:00,
2015-03-27 12:11:00,48.1,40.6,29.84,SE,128,1.0,7.0,75,0.00,,OVC019,0.22,VWS V14.01,2015-03-27 16:11:00,
2015-03-27 12:16:00,48.1,40.2,29.84,NW,314,4.0,10.0,74,0.00,,OVC019,0.22,VWS V14.01,2015-03-27 16:16:00,
2015-03-27 12:21:00,48.1,40.6,29.84,WSW,254,3.0,6.0,75,0.00,,OVC019,0.22,VWS V14.01,2015-03-27 16:21:00,
2015-03-27 12:26:00,48.2,40.3,29.84,West,276,4.0,8.0,74,0.00,,OVC019,0.22,VWS V14.01,2015-03-27 16:26:00,
2015-03-27 12:31:00,48.5,40.2,29.84,NW,312,3.0,6.0,73,0.00,,OVC019,0.22,VWS V14.01,2015-03-27 16:31:00,
2015-03-27 12:36:00,48.8,40.2,29.84,NNW,327,9.0,9.0,72,0.00,,OVC019,0.22,VWS V14.01,2015-03-27 16:36:00,
2015-03-27 12:41:00,49.2,39.8,29.84,NNW,340,7.0,7.0,70,0.00,,OVC025,0.22,VWS V14.01,2015-03-27 16:41:00,
2015-03-27 12:46:00,49.4,39.7,29.84,NNE,14,5.0,10.0,69,0.00,,OVC025,0.22,VWS V14.01,2015-03-27 16:46:00,
2015-03-27 12:51:00,49.6,39.9,29.83,NNE,12,3.0,11.0,69,0.00,,OVC025,0.22,VWS V14.01,2015-03-27 16:51:00,
2015-03-27 12:56:00,49.9,40.5,29.83,NNE,15,5.0,9.0,70,0.00,,OVC025,0.22,VWS V14.01,2015-03-27 16:56:00,
2015-03-27 13:01:00,50.1,40.3,29.83,NE,40,1.0,7.0,69,0.00,,OVC025,0.22,VWS V14.01,2015-03-27 17:01:00,
2015-03-27 13:06:00,50.5,40.3,29.83,NE,36,3.0,5.0,68,0.00,,OVC025,0.22,VWS V14.01,2015-03-27 17:06:00,
2015-03-27 13:11:00,50.8,39.9,29.83,NNE,19,4.0,9.0,66,0.00,,OVC025,0.22,VWS V14.01,2015-03-27 17:11:00,
2015-03-27 13:16:00,50.9,39.6,29.83,ENE,61,3.0,6.0,65,0.00,,OVC025,0.22,VWS V14.01,2015-03-27 17:16:00,
2015-03-27 13:21:00,51.2,39.0,29.83,NNW,342,2.0,8.0,63,0.00,,OVC025,0.22,VWS V14.01,2015-03-27 17:21:00,
2015-03-27 13:26:00,51.3,39.2,29.83,North,355,3.0,7.0,63,0.00,,OVC025,0.22,VWS V14.01,2015-03-27 17:26:00,
2015-03-27 13:31:00,51.7,41.1,29.83,NNW,339,3.0,6.0,67,0.00,,OVC025,0.22,VWS V14.01,2015-03-27 17:31:00,
2015-03-27 13:36:00,51.8,39.6,29.82,North,9,1.0,7.0,63,0.00,,OVC025,0.22,VWS V14.01,2015-03-27 17:36:00,
2015-03-27 13:41:00,52.0,40.6,29.82,West,278,16.0,16.0,65,0.00,,BKN034,0.22,VWS V14.01,2015-03-27 17:41:00,
2015-03-27 13:46:00,52.3,39.7,29.82,WSW,250,1.0,9.0,62,0.00,,BKN034,0.22,VWS V14.01,2015-03-27 17:46:00,
2015-03-27 13:51:00,52.6,39.1,29.82,WNW,301,5.0,9.0,60,0.00,,BKN034,0.22,VWS V14.01,2015-03-27 17:51:00,
2015-03-27 13:56:00,52.8,38.5,29.82,NE,42,5.0,6.0,58,0.00,,BKN034,0.22,VWS V14.01,2015-03-27 17:56:00,
2015-03-27 14:01:00,53.0,39.5,29.82,West,273,7.0,10.0,60,0.00,,BKN034,0.22,VWS V14.01,2015-03-27 18:01:00,
2015-03-27 14:06:00,53.1,38.7,29.82,East,97,2.0,6.0,58,0.00,,BKN034,0.22,VWS V14.01,2015-03-27 18:06:00,
2015-03-27 14:11:00,53.3,38.9,29.82,South,174,1.0,6.0,58,0.00,,BKN034,0.22,VWS V14.01,2015-03-27 18:11:00,
2015-03-27 14:16:00,53.3,38.0,29.82,SSW,202,4.0,11.0,56,0.00,,BKN034,0.22,VWS V14.01,2015-03-27 18:16:00,
2015-03-27 14:21:00,53.4,37.7,29.82,SW,220,3.0,11.0,55,0.00,,BKN034,0.22,VWS V14.01,2015-03-27 18:21:00,
2015-03-27 14:26:00,53.5,38.2,29.82,SW,222,3.0,9.0,56,0.00,,BKN034,0.22,VWS V14.01,2015-03-27 18:26:00,
2015-03-27 14:31:00,53.8,38.0,29.82,SW,235,2.0,9.0,55,0.00,,BKN034,0.22,VWS V14.01,2015-03-27 18:31:00,
2015-03-27 14:36:00,54.1,37.8,29.82,NE,49,1.0,6.0,54,0.00,,BKN034,0.22,VWS V14.01,2015-03-27 18:36:00,
2015-03-27 14:41:00,54.2,37.5,29.82,SSW,211,2.0,11.0,53,0.00,,BKN034,0.22,VWS V14.01,2015-03-27 18:41:00,
2015-03-27 14:46:00,54.5,36.3,29.82,NE,37,3.0,5.0,50,0.00,,BKN034,0.22,VWS V14.01,2015-03-27 18:46:00,
2015-03-27 14:51:00,55.0,36.7,29.83,SW,223,4.0,9.0,50,0.00,,BKN034,0.22,VWS V14.01,2015-03-27 18:51:00,
2015-03-27 14:56:00,55.3,36.5,29.83,West,281,2.0,11.0,49,0.00,,BKN034,0.22,VWS V14.01,2015-03-27 18:56:00,
2015-03-27 15:01:00,55.6,37.8,29.83,South,172,1.0,6.0,51,0.00,,BKN034,0.22,VWS V14.01,2015-03-27 19:01:00,
2015-03-27 15:06:00,55.9,36.0,29.82,NNW,334,5.0,6.0,47,0.00,,BKN034,0.22,VWS V14.01,2015-03-27 19:06:00,
2015-03-27 15:11:00,56.0,35.5,29.82,WSW,256,5.0,13.0,46,0.00,,BKN034,0.22,VWS V14.01,2015-03-27 19:11:00,
2015-03-27 15:16:00,56.1,35.6,29.82,ESE,117,2.0,7.0,46,0.00,,BKN034,0.22,VWS V14.01,2015-03-27 19:16:00,
2015-03-27 15:21:00,56.2,35.7,29.81,WSW,242,3.0,10.0,46,0.00,,BKN034,0.22,VWS V14.01,2015-03-27 19:21:00,
2015-03-27 15:26:00,56.3,35.8,29.81,NNW,344,6.0,7.0,46,0.00,,BKN034,0.22,VWS V14.01,2015-03-27 19:26:00,
2015-03-27 15:31:00,56.4,37.0,29.81,NNW,345,2.0,4.0,48,0.00,,BKN034,0.22,VWS V14.01,2015-03-27 19:31:00,
2015-03-27 15:36:00,56.5,36.0,29.81,NE,48,2.0,8.0,46,0.00,,BKN034,0.22,VWS V14.01,2015-03-27 19:36:00,
2015-03-27 15:41:00,56.4,33.6,29.81,NW,319,4.0,11.0,42,0.00,,FEW047,0.22,VWS V14.01,2015-03-27 19:41:00,
2015-03-27 15:46:00,56.4,34.8,29.81,NE,44,2.0,10.0,44,0.00,,FEW047,0.22,VWS V14.01,2015-03-27 19:46:00,
2015-03-27 15:51:00,56.5,34.3,29.80,NNW,348,3.0,9.0,43,0.00,,FEW047,0.22,VWS V14.01,2015-03-27 19:51:00,
2015-03-27 15:56:00,56.7,33.9,29.80,West,281,4.0,7.0,42,0.00,,FEW047,0.22,VWS V14.01,2015-03-27 19:56:00,
2015-03-27 16:01:00,56.7,34.5,29.80,NNW,335,1.0,5.0,43,0.00,,FEW047,0.22,VWS V14.01,2015-03-27 20:01:00,
2015-03-27 16:06:00,56.9,33.5,29.80,North,5,2.0,5.0,41,0.00,,FEW047,0.22,VWS V14.01,2015-03-27 20:06:00,
2015-03-27 16:11:00,57.1,33.0,29.80,WSW,256,1.0,9.0,40,0.00,,FEW047,0.22,VWS V14.01,2015-03-27 20:11:00,
2015-03-27 16:16:00,57.2,33.1,29.80,SW,221,1.0,5.0,40,0.00,,FEW047,0.22,VWS V14.01,2015-03-27 20:16:00,
2015-03-27 16:21:00,57.2,31.8,29.80,NNE,32,3.0,6.0,38,0.00,,FEW047,0.22,VWS V14.01,2015-03-27 20:21:00,
2015-03-27 16:26:00,57.1,31.8,29.80,SSW,195,2.0,6.0,38,0.00,,FEW047,0.22,VWS V14.01,2015-03-27 20:26:00,
2015-03-27 16:31:00,57.2,33.1,29.80,North,355,4.0,4.0,40,0.00,,FEW047,0.22,VWS V14.01,2015-03-27 20:31:00,
2015-03-27 16:36:00,57.1,31.8,29.79,NW,306,3.0,4.0,38,0.00,,FEW047,0.22,VWS V14.01,2015-03-27 20:36:00,
2015-03-27 16:41:00,56.9,33.5,29.79,North,360,6.0,9.0,41,0.00,,CLR,0.22,VWS V14.01,2015-03-27 20:41:00,
2015-03-27 16:46:00,56.7,32.0,29.79,East,80,1.0,7.0,39,0.00,,CLR,0.22,VWS V14.01,2015-03-27 20:46:00,
2015-03-27 16:51:00,56.6,31.3,29.79,NW,313,7.0,9.0,38,0.00,,CLR,0.22,VWS V14.01,2015-03-27 20:51:00,
2015-03-27 16:56:00,56.1,31.5,29.79,NNE,12,1.0,7.0,39,0.00,,CLR,0.22,VWS V14.01,2015-03-27 20:56:00,
2015-03-27 17:01:00,56.0,32.7,29.79,WNW,282,5.0,10.0,41,0.00,,CLR,0.22,VWS V14.01,2015-03-27 21:01:00,
2015-03-27 17:06:00,56.1,32.7,29.79,NNW,340,2.0,5.0,41,0.00,,CLR,0.22,VWS V14.01,2015-03-27 21:06:00,
2015-03-27 17:11:00,56.2,32.2,29.79,East,88,1.0,5.0,40,0.00,,CLR,0.22,VWS V14.01,2015-03-27 21:11:00,
2015-03-27 17:16:00,56.1,31.5,29.79,North,360,4.0,5.0,39,0.00,,CLR,0.22,VWS V14.01,2015-03-27 21:16:00,
2015-03-27 17:21:00,55.8,31.2,29.80,NNW,331,3.0,5.0,39,0.00,,CLR,0.22,VWS V14.01,2015-03-27 21:21:00,
2015-03-27 17:26:00,55.8,32.5,29.80,NNE,22,3.0,10.0,41,0.00,,CLR,0.22,VWS V14.01,2015-03-27 21:26:00,
2015-03-27 17:31:00,55.9,32.6,29.80,WNW,283,3.0,4.0,41,0.00,,CLR,0.22,VWS V14.01,2015-03-27 21:31:00,
2015-03-27 17:36:00,55.9,30.7,29.81,North,360,4.0,7.0,38,0.00,,CLR,0.22,VWS V14.01,2015-03-27 21:36:00,
2015-03-27 17:41:00,55.6,31.1,29.81,NNW,329,3.0,7.0,39,0.00,,FEW070,0.22,VWS V14.01,2015-03-27 21:41:00,
2015-03-27 17:46:00,55.4,30.2,29.81,North,11,2.0,5.0,38,0.00,,FEW070,0.22,VWS V14.01,2015-03-27 21:46:00,
2015-03-27 17:51:00,55.1,31.8,29.82,NNW,332,2.0,8.0,41,0.00,,FEW070,0.22,VWS V14.01,2015-03-27 21:51:00,
2015-03-27 17:55:00,54.8,31.0,29.82,SSW,210,2.0,3.0,40,0.00,,FEW070,0.22,VWS V14.01,2015-03-27 21:55:00,
2015-03-27 18:00:00,54.7,30.9,29.82,NNW,327,2.0,8.0,40,0.00,,FEW070,0.22,VWS V14.01,2015-03-27 22:00:00,
2015-03-27 18:05:00,54.5,30.7,29.82,NW,309,5.0,6.0,40,0.00,,FEW070,0.22,VWS V14.01,2015-03-27 22:05:00,
2015-03-27 18:10:00,54.2,31.6,29.82,North,5,1.0,5.0,42,0.00,,FEW070,0.22,VWS V14.01,2015-03-27 22:10:00,
2015-03-27 18:15:00,54.0,31.5,29.82,East,98,1.0,3.0,42,0.00,,FEW070,0.22,VWS V14.01,2015-03-27 22:15:00,
2015-03-27 18:20:00,53.8,30.7,29.83,NNW,336,3.0,4.0,41,0.00,,FEW070,0.22,VWS V14.01,2015-03-27 22:20:00,
2015-03-27 18:25:00,53.5,31.0,29.83,West,275,6.0,6.0,42,0.00,,FEW070,0.22,VWS V14.01,2015-03-27 22:25:00,
2015-03-27 18:30:00,53.3,30.8,29.83,NNE,22,3.0,3.0,42,0.00,,FEW070,0.22,VWS V14.01,2015-03-27 22:30:00,
2015-03-27 18:35:00,53.0,31.1,29.83,West,269,2.0,5.0,43,0.00,,FEW070,0.22,VWS V14.01,2015-03-27 22:35:00,
2015-03-27 18:40:00,52.9,31.6,29.83,NW,326,2.0,3.0,44,0.00,,OVC090,0.22,VWS V14.01,2015-03-27 22:40:00,
2015-03-27 18:45:00,52.8,30.9,29.83,SSW,212,2.0,7.0,43,0.00,,OVC090,0.22,VWS V14.01,2015-03-27 22:45:00,
2015-03-27 18:50:00,52.5,30.7,29.84,NNW,336,3.0,6.0,43,0.00,,OVC090,0.22,VWS V14.01,2015-03-27 22:50:00,
2015-03-27 18:55:00,52.3,29.9,29.84,ENE,64,3.0,5.0,42,0.00,,OVC090,0.22,VWS V14.01,2015-03-27 22:55:00,
2015-03-27 19:00:00,52.1,30.3,29.84,NNW,336,2.0,7.0,43,0.00,,OVC090,0.22,VWS V14.01,2015-03-27 23:00:00,